createdAt,value
2023-02-01T00:00:09.911Z,97525.88
2023-02-01T00:02:40.823Z,97525.44
2023-02-01T00:05:09.858Z,97522.97
2023-02-01T00:07:37.904Z,97526.19
2023-02-01T00:10:06.412Z,97518.38
2023-02-01T00:12:34.117Z,97522.78
2023-02-01T00:15:01.857Z,97515.50
2023-02-01T00:17:29.583Z,97508.19
2023-02-01T00:19:57.344Z,97515.03
2023-02-01T00:22:25.105Z,97513.72
2023-02-01T00:24:52.770Z,97520.38
2023-02-01T00:27:22.280Z,97514.03
2023-02-01T00:29:49.991Z,97517.19
2023-02-01T00:32:17.805Z,97505.31
2023-02-01T00:34:45.522Z,97508.81
2023-02-01T00:37:13.214Z,97509.53
2023-02-01T00:39:40.914Z,97508.00
2023-02-01T00:42:09.276Z,97508.63
2023-02-01T00:44:36.992Z,97500.84
2023-02-01T00:47:04.711Z,97503.06
2023-02-01T00:49:32.416Z,97509.28
2023-02-01T00:52:00.187Z,97503.94
2023-02-01T00:54:27.963Z,97492.19
2023-02-01T00:56:55.688Z,97501.75
2023-02-01T00:59:23.376Z,97497.31
2023-02-01T01:01:51.165Z,97499.38
2023-02-01T01:04:18.966Z,97498.97
2023-02-01T01:06:46.702Z,97490.66
2023-02-01T01:09:14.430Z,97492.03
2023-02-01T01:11:42.188Z,97495.19
2023-02-01T01:14:10.017Z,97489.72
2023-02-01T01:16:38.668Z,97491.16
2023-02-01T01:19:06.607Z,97481.47
2023-02-01T01:21:34.384Z,97480.47
2023-02-01T01:24:02.152Z,97476.97
2023-02-01T01:26:30.404Z,97472.34
2023-02-01T01:28:58.805Z,97478.44
2023-02-01T01:31:26.733Z,97481.34
2023-02-01T01:33:55.993Z,97481.16
2023-02-01T01:36:24.286Z,97487.41
2023-02-01T01:38:52.056Z,97492.09
2023-02-01T01:41:22.057Z,97491.16
2023-02-01T01:43:57.976Z,97497.63
2023-02-01T01:46:38.526Z,97483.09
2023-02-01T01:49:15.013Z,97480.25
2023-02-01T01:51:48.978Z,97479.94
2023-02-01T01:54:43.433Z,97487.63
2023-02-01T01:57:18.052Z,97487.72
2023-02-01T01:59:48.642Z,97487.03
2023-02-01T02:02:16.579Z,97478.81
2023-02-01T02:04:44.359Z,97484.50
2023-02-01T02:07:21.402Z,97476.78
2023-02-01T02:10:00.138Z,97479.41
2023-02-01T02:12:29.168Z,97485.81
2023-02-01T02:14:57.047Z,97485.59
2023-02-01T02:17:55.895Z,97485.81
2023-02-01T02:20:41.102Z,97480.84
2023-02-01T02:23:30.426Z,97474.56
2023-02-01T02:26:43.432Z,97467.84
2023-02-01T02:29:26.301Z,97482.53
2023-02-01T02:32:21.494Z,97468.78
2023-02-01T02:34:57.353Z,97473.44
2023-02-01T02:37:47.858Z,97475.50
2023-02-01T02:40:33.967Z,97484.53
2023-02-01T02:43:23.470Z,97474.38
2023-02-01T02:46:45.392Z,97476.25
2023-02-01T02:49:16.227Z,97484.34
2023-02-01T02:52:41.839Z,97478.19
2023-02-01T02:55:09.722Z,97472.34
2023-02-01T02:58:00.650Z,97478.53
2023-02-01T03:00:48.852Z,97482.91
2023-02-01T03:03:34.985Z,97475.38
2023-02-01T03:06:03.050Z,97481.59
2023-02-01T03:08:32.251Z,97483.91
2023-02-01T03:11:06.410Z,97488.66
2023-02-01T03:13:37.203Z,97498.75
2023-02-01T03:16:29.247Z,97499.16
2023-02-01T03:19:15.508Z,97503.94
2023-02-01T03:21:57.847Z,97500.28
2023-02-01T03:24:39.059Z,97497.25
2023-02-01T03:27:09.222Z,97521.56
2023-02-01T03:30:02.729Z,97515.06
2023-02-01T03:32:50.877Z,97506.94
2023-02-01T03:35:19.171Z,97512.50
2023-02-01T03:37:46.899Z,97505.34
2023-02-01T03:40:15.171Z,97500.91
2023-02-01T03:42:46.147Z,97502.59
2023-02-01T03:45:22.654Z,97498.81
2023-02-01T03:47:51.563Z,97503.59
2023-02-01T03:50:24.975Z,97500.09
2023-02-01T03:53:05.362Z,97494.22
2023-02-01T03:55:33.577Z,97500.75
2023-02-01T03:58:04.324Z,97498.19
2023-02-01T04:00:32.299Z,97496.63
2023-02-01T04:03:00.343Z,97491.53
2023-02-01T04:05:28.142Z,97494.69
2023-02-01T04:07:59.988Z,97495.28
2023-02-01T04:10:27.672Z,97488.53
2023-02-01T04:12:55.427Z,97495.97
2023-02-01T04:15:23.135Z,97488.03
2023-02-01T04:17:50.907Z,97497.88
2023-02-01T04:20:18.754Z,97491.50
2023-02-01T04:22:46.510Z,97491.53
2023-02-01T04:25:14.245Z,97495.97
2023-02-01T04:27:42.009Z,97494.38
2023-02-01T04:30:10.940Z,97502.63
2023-02-01T04:32:39.140Z,97504.69
2023-02-01T04:35:07.323Z,97495.97
2023-02-01T04:37:35.314Z,97500.56
2023-02-01T04:40:04.681Z,97500.69
2023-02-01T04:42:32.488Z,97496.44
2023-02-01T04:45:00.183Z,97491.53
2023-02-01T04:47:27.922Z,97496.63
2023-02-01T04:49:55.828Z,97503.59
2023-02-01T04:52:23.605Z,97495.19
2023-02-01T04:54:51.401Z,97501.53
2023-02-01T04:57:19.181Z,97512.47
2023-02-01T04:59:46.873Z,97508.19
2023-02-01T05:02:14.634Z,97509.75
2023-02-01T05:04:42.372Z,97505.63
2023-02-01T05:07:10.136Z,97502.31
2023-02-01T05:09:37.866Z,97505.53
2023-02-01T05:12:24.678Z,97498.38
2023-02-01T05:14:52.485Z,97503.91
2023-02-01T05:17:20.209Z,97501.84
2023-02-01T05:19:47.942Z,97509.03
2023-02-01T05:22:15.685Z,97504.38
2023-02-01T05:24:43.367Z,97509.81
2023-02-01T05:27:11.076Z,97497.22
2023-02-01T05:29:38.791Z,97505.38
2023-02-01T05:32:21.096Z,97504.53
2023-02-01T05:34:50.270Z,97503.88
2023-02-01T05:37:17.981Z,97509.63
2023-02-01T05:39:45.682Z,97519.44
2023-02-01T05:42:13.422Z,97508.88
2023-02-01T05:44:41.116Z,97522.63
2023-02-01T05:47:08.916Z,97527.81
2023-02-01T05:49:36.662Z,97517.38
2023-02-01T05:52:04.487Z,97513.44
2023-02-01T05:54:32.199Z,97512.81
2023-02-01T05:57:00.012Z,97533.13
2023-02-01T05:59:27.695Z,97539.44
2023-02-01T06:01:55.460Z,97529.94
2023-02-01T06:04:23.164Z,97522.56
2023-02-01T06:06:51.636Z,97540.47
2023-02-01T06:09:19.350Z,97532.94
2023-02-01T06:11:47.311Z,97535.19
2023-02-01T06:14:15.062Z,97527.38
2023-02-01T06:16:42.854Z,97539.47
2023-02-01T06:19:10.542Z,97538.41
2023-02-01T06:21:38.265Z,97551.75
2023-02-01T06:24:07.177Z,97550.66
2023-02-01T06:26:34.940Z,97555.25
2023-02-01T06:29:02.633Z,97546.91
2023-02-01T06:31:30.440Z,97537.47
2023-02-01T06:33:58.398Z,97564.69
2023-02-01T06:36:26.198Z,97570.53
2023-02-01T06:38:54.062Z,97553.28
2023-02-01T06:41:21.844Z,97561.41
2023-02-01T06:43:49.946Z,97566.44
2023-02-01T06:46:17.896Z,97558.19
2023-02-01T06:48:47.105Z,97556.56
2023-02-01T06:51:25.661Z,97564.91
2023-02-01T06:53:53.442Z,97560.50
2023-02-01T06:56:23.997Z,97561.91
2023-02-01T06:58:51.873Z,97565.44
2023-02-01T07:01:19.564Z,97563.19
2023-02-01T07:03:51.915Z,97569.69
2023-02-01T07:06:19.880Z,97574.66
2023-02-01T07:08:47.606Z,97569.09
2023-02-01T07:11:15.811Z,97571.31
2023-02-01T07:13:43.570Z,97582.06
2023-02-01T07:16:13.385Z,97590.00
2023-02-01T07:18:41.211Z,97593.06
2023-02-01T07:21:09.196Z,97595.13
2023-02-01T07:23:36.981Z,97592.72
2023-02-01T07:26:06.235Z,97597.91
2023-02-01T07:28:35.462Z,97599.97
2023-02-01T07:31:10.613Z,97600.38
2023-02-01T07:33:38.496Z,97597.59
2023-02-01T07:36:07.293Z,97602.91
2023-02-01T07:38:35.201Z,97610.78
2023-02-01T07:41:04.211Z,97618.06
2023-02-01T07:43:32.043Z,97618.41
2023-02-01T07:45:59.916Z,97617.19
2023-02-01T07:48:28.125Z,97610.09
2023-02-01T07:51:02.657Z,97624.75
2023-02-01T07:53:31.098Z,97613.63
2023-02-01T07:55:58.874Z,97620.22
2023-02-01T07:58:26.676Z,97622.50
2023-02-01T08:01:12.876Z,97613.59
2023-02-01T08:03:40.766Z,97622.50
2023-02-01T08:06:08.520Z,97622.03
2023-02-01T08:08:36.457Z,97617.88
2023-02-01T08:11:05.501Z,97608.50
2023-02-01T08:13:34.722Z,97612.97
2023-02-01T08:16:03.937Z,97614.41
2023-02-01T08:18:31.798Z,97615.47
2023-02-01T08:21:09.655Z,97619.16
2023-02-01T08:23:38.140Z,97621.22
2023-02-01T08:26:10.672Z,97615.78
2023-02-01T08:28:39.431Z,97618.28
2023-02-01T08:31:11.201Z,97609.41
2023-02-01T08:33:39.038Z,97623.03
2023-02-01T08:36:07.386Z,97620.25
2023-02-01T08:38:38.636Z,97621.81
2023-02-01T08:41:15.433Z,97632.16
2023-02-01T08:43:43.368Z,97629.19
2023-02-01T08:46:11.531Z,97641.47
2023-02-01T08:48:39.504Z,97645.25
2023-02-01T08:51:08.866Z,97646.69
2023-02-01T08:53:37.297Z,97652.41
2023-02-01T08:56:05.453Z,97651.44
2023-02-01T08:58:33.191Z,97642.81
2023-02-01T09:01:08.622Z,97646.13
2023-02-01T09:03:36.462Z,97646.97
2023-02-01T09:06:08.642Z,97645.09
2023-02-01T09:08:36.424Z,97645.59
2023-02-01T09:11:08.412Z,97648.19
2023-02-01T09:13:36.588Z,97639.00
2023-02-01T09:16:04.873Z,97638.22
2023-02-01T09:18:32.700Z,97646.88
2023-02-01T09:21:00.428Z,97644.03
2023-02-01T09:23:28.272Z,97629.72
2023-02-01T09:25:59.427Z,97637.97
2023-02-01T09:28:27.422Z,97634.44
2023-02-01T09:31:01.538Z,97643.81
2023-02-01T09:33:29.849Z,97632.25
2023-02-01T09:36:01.697Z,97633.84
2023-02-01T09:38:29.653Z,97633.09
2023-02-01T09:40:57.759Z,97635.78
2023-02-01T09:43:34.732Z,97626.94
2023-02-01T09:46:22.871Z,97625.59
2023-02-01T09:48:50.864Z,97608.72
2023-02-01T09:51:22.813Z,97600.56
2023-02-01T09:54:01.224Z,97597.69
2023-02-01T09:56:35.919Z,97595.16
2023-02-01T09:59:12.090Z,97594.50
2023-02-01T10:01:39.964Z,97595.34
2023-02-01T10:04:13.418Z,97592.13
2023-02-01T10:07:16.440Z,97588.94
2023-02-01T10:09:59.247Z,97587.56
2023-02-01T10:13:02.792Z,97578.28
2023-02-01T10:15:39.196Z,97582.09
2023-02-01T10:18:25.620Z,97581.03
2023-02-01T10:21:17.614Z,97582.00
2023-02-01T10:23:55.236Z,97573.66
2023-02-01T10:26:25.221Z,97569.69
2023-02-01T10:28:54.818Z,97572.19
2023-02-01T10:31:27.054Z,97560.69
2023-02-01T10:34:02.601Z,97561.84
2023-02-01T10:36:37.337Z,97551.91
2023-02-01T10:39:05.485Z,97566.41
2023-02-01T10:41:37.400Z,97564.75
2023-02-01T10:44:07.307Z,97568.81
2023-02-01T10:46:35.204Z,97568.13
2023-02-01T10:49:04.242Z,97566.91
2023-02-01T10:51:46.155Z,97565.28
2023-02-01T10:54:34.566Z,97560.91
2023-02-01T10:57:02.368Z,97552.34
2023-02-01T10:59:30.436Z,97552.88
2023-02-01T11:02:36.364Z,97543.03
2023-02-01T11:05:13.172Z,97541.31
2023-02-01T11:07:41.925Z,97544.03
2023-02-01T11:10:11.265Z,97536.94
2023-02-01T11:12:39.073Z,97540.56
2023-02-01T11:15:12.850Z,97536.88
2023-02-01T11:17:45.398Z,97526.78
2023-02-01T11:20:20.883Z,97529.56
2023-02-01T11:22:49.781Z,97527.41
2023-02-01T11:25:18.379Z,97530.38
2023-02-01T11:27:54.658Z,97525.81
2023-02-01T11:30:39.385Z,97525.56
2023-02-01T11:33:07.311Z,97517.22
2023-02-01T11:35:38.203Z,97515.16
2023-02-01T11:38:22.969Z,97509.25
2023-02-01T11:40:50.901Z,97509.75
2023-02-01T11:43:26.562Z,97494.28
2023-02-01T11:46:04.189Z,97497.16
2023-02-01T11:48:33.214Z,97487.84
2023-02-01T11:51:12.872Z,97484.59
2023-02-01T11:54:17.226Z,97476.47
2023-02-01T11:57:01.805Z,97480.72
2023-02-01T11:59:38.843Z,97462.16
2023-02-01T12:02:11.415Z,97464.91
2023-02-01T12:05:01.255Z,97467.78
2023-02-01T12:07:58.567Z,97469.69
2023-02-01T12:10:45.161Z,97469.63
2023-02-01T12:13:20.269Z,97464.69
2023-02-01T12:16:03.543Z,97470.13
2023-02-01T12:18:52.923Z,97473.13
2023-02-01T12:21:52.524Z,97468.09
2023-02-01T12:24:20.402Z,97471.03
2023-02-01T12:27:18.849Z,97458.81
2023-02-01T12:29:49.472Z,97466.53
2023-02-01T12:32:25.769Z,97457.41
2023-02-01T12:35:03.875Z,97468.31
2023-02-01T12:37:56.735Z,97465.19
2023-02-01T12:40:29.966Z,97467.13
2023-02-01T12:43:04.505Z,97469.50
2023-02-01T12:45:55.540Z,97469.91
2023-02-01T12:48:31.364Z,97482.31
2023-02-01T12:51:03.001Z,97461.91
2023-02-01T12:54:01.971Z,97460.59
2023-02-01T12:56:56.463Z,97453.19
2023-02-01T12:59:39.948Z,97457.25
2023-02-01T13:02:26.031Z,97450.25
2023-02-01T13:05:25.902Z,97459.16
2023-02-01T13:07:59.281Z,97460.63
2023-02-01T13:10:35.701Z,97455.22
2023-02-01T13:13:30.022Z,97451.59
2023-02-01T13:16:28.213Z,97443.16
2023-02-01T13:19:21.349Z,97446.31
2023-02-01T13:22:12.975Z,97438.22
2023-02-01T13:24:46.153Z,97445.53
2023-02-01T13:27:14.388Z,97448.06
2023-02-01T13:30:02.994Z,97449.06
2023-02-01T13:33:53.309Z,97452.06
2023-02-01T13:35:56.650Z,97454.00
2023-02-01T13:38:44.637Z,97455.31
2023-02-01T13:41:18.014Z,97445.09
2023-02-01T13:43:45.867Z,97458.13
2023-02-01T13:46:18.095Z,97446.03
2023-02-01T13:48:48.812Z,97452.38
2023-02-01T13:51:16.599Z,97448.72
2023-02-01T13:53:49.101Z,97445.09
2023-02-01T13:56:19.110Z,97439.38
2023-02-01T13:58:48.246Z,97453.69
2023-02-01T14:01:22.023Z,97455.19
2023-02-01T14:03:57.163Z,97444.38
2023-02-01T14:06:28.382Z,97436.44
2023-02-01T14:09:14.461Z,97448.34
2023-02-01T14:11:45.460Z,97436.47
2023-02-01T14:14:16.017Z,97440.13
2023-02-01T14:16:44.409Z,97428.81
2023-02-01T14:19:34.575Z,97439.59
2023-02-01T14:22:22.401Z,97433.81
2023-02-01T14:24:55.179Z,97427.31
2023-02-01T14:27:25.801Z,97428.28
2023-02-01T14:30:02.113Z,97415.28
2023-02-01T14:32:37.615Z,97415.63
2023-02-01T14:35:27.125Z,97411.38
2023-02-01T14:37:59.633Z,97410.81
2023-02-01T14:40:28.644Z,97405.31
2023-02-01T14:42:57.908Z,97404.59
2023-02-01T14:45:29.385Z,97400.06
2023-02-01T14:48:06.338Z,97415.63
2023-02-01T14:50:34.506Z,97430.34
2023-02-01T14:53:05.275Z,97434.22
2023-02-01T14:55:54.533Z,97433.09
2023-02-01T14:58:53.108Z,97419.59
2023-02-01T15:01:24.781Z,97414.84
2023-02-01T15:04:11.957Z,97414.41
2023-02-01T15:06:43.005Z,97412.13
2023-02-01T15:09:19.952Z,97408.09
2023-02-01T15:12:07.032Z,97416.03
2023-02-01T15:14:37.149Z,97407.16
2023-02-01T15:17:20.897Z,97394.38
2023-02-01T15:19:58.362Z,97394.16
2023-02-01T15:22:26.770Z,97398.50
2023-02-01T15:24:59.351Z,97397.38
2023-02-01T15:27:28.134Z,97405.56
2023-02-01T15:29:55.849Z,97411.88
2023-02-01T15:32:49.991Z,97396.34
2023-02-01T15:35:37.210Z,97410.28
2023-02-01T15:38:26.251Z,97402.50
2023-02-01T15:41:05.926Z,97416.25
2023-02-01T15:43:35.426Z,97405.41
2023-02-01T15:46:06.298Z,97413.88
2023-02-01T15:48:38.180Z,97411.50
2023-02-01T15:51:06.125Z,97411.16
2023-02-01T15:53:35.054Z,97426.13
2023-02-01T15:56:03.523Z,97424.66
2023-02-01T15:58:32.838Z,97413.38
2023-02-01T16:01:03.193Z,97430.34
2023-02-01T16:03:39.192Z,97422.16
2023-02-01T16:06:09.122Z,97420.91
2023-02-01T16:08:38.038Z,97425.19
2023-02-01T16:11:16.472Z,97424.38
2023-02-01T16:13:44.206Z,97431.31
2023-02-01T16:16:14.969Z,97457.22
2023-02-01T16:18:43.106Z,97466.78
2023-02-01T16:21:10.813Z,97447.66
2023-02-01T16:23:38.634Z,97450.31
2023-02-01T16:26:06.988Z,97439.22
2023-02-01T16:28:34.857Z,97447.09
2023-02-01T16:31:02.701Z,97451.06
2023-02-01T16:33:30.590Z,97451.47
2023-02-01T16:36:01.311Z,97452.25
2023-02-01T16:38:29.080Z,97453.25
2023-02-01T16:40:58.620Z,97471.84
2023-02-01T16:43:27.246Z,97471.53
2023-02-01T16:45:56.203Z,97471.94
2023-02-01T16:48:26.043Z,97467.38
2023-02-01T16:51:10.394Z,97474.75
2023-02-01T16:53:53.126Z,97471.97
2023-02-01T16:56:32.403Z,97451.53
2023-02-01T16:59:00.354Z,97461.16
2023-02-01T17:01:28.321Z,97454.25
2023-02-01T17:03:56.996Z,97467.59
2023-02-01T17:06:25.566Z,97470.13
2023-02-01T17:08:58.995Z,97472.06
2023-02-01T17:11:27.647Z,97464.75
2023-02-01T17:13:56.960Z,97461.03
2023-02-01T17:16:29.346Z,97465.13
2023-02-01T17:19:03.552Z,97465.03
2023-02-01T17:22:06.726Z,97474.59
2023-02-01T17:24:47.566Z,97454.31
2023-02-01T17:27:16.967Z,97459.06
2023-02-01T17:29:47.031Z,97460.16
2023-02-01T17:32:20.111Z,97464.28
2023-02-01T17:34:48.081Z,97468.50
2023-02-01T17:37:29.868Z,97455.22
2023-02-01T17:39:57.842Z,97459.19
2023-02-01T17:42:27.962Z,97464.63
2023-02-01T17:44:57.426Z,97478.09
2023-02-01T17:47:25.131Z,97477.78
2023-02-01T17:49:56.676Z,97472.03
2023-02-01T17:52:25.073Z,97470.28
2023-02-01T17:54:54.233Z,97481.59
2023-02-01T17:57:22.053Z,97483.56
2023-02-01T17:59:49.771Z,97487.19
2023-02-01T18:02:24.677Z,97485.19
2023-02-01T18:04:52.612Z,97481.13
2023-02-01T18:07:20.357Z,97485.44
2023-02-01T18:09:48.121Z,97479.47
2023-02-01T18:12:37.833Z,97478.19
2023-02-01T18:15:21.632Z,97481.03
2023-02-01T18:17:50.248Z,97467.09
2023-02-01T18:20:24.249Z,97470.19
2023-02-01T18:22:57.333Z,97473.16
2023-02-01T18:25:32.240Z,97470.19
2023-02-01T18:28:06.033Z,97486.09
2023-02-01T18:30:34.113Z,97486.50
2023-02-01T18:33:08.533Z,97488.28
2023-02-01T18:35:45.388Z,97494.88
2023-02-01T18:38:16.677Z,97497.75
2023-02-01T18:40:56.394Z,97488.03
2023-02-01T18:43:26.321Z,97488.81
2023-02-01T18:46:01.096Z,97467.84
2023-02-01T18:48:39.089Z,97466.66
2023-02-01T18:51:21.131Z,97475.47
2023-02-01T18:53:53.850Z,97465.88
2023-02-01T18:56:26.067Z,97456.53
2023-02-01T18:59:01.566Z,97446.00
2023-02-01T19:01:34.842Z,97438.13
2023-02-01T19:04:18.966Z,97447.56
2023-02-01T19:06:54.407Z,97436.25
2023-02-01T19:09:28.602Z,97451.06
2023-02-01T19:11:58.757Z,97451.81
2023-02-01T19:14:32.189Z,97450.41
2023-02-01T19:17:10.220Z,97439.94
2023-02-01T19:19:54.778Z,97437.56
2023-02-01T19:22:28.720Z,97442.19
2023-02-01T19:25:02.257Z,97441.81
2023-02-01T19:27:38.494Z,97445.94
2023-02-01T19:30:12.646Z,97448.22
2023-02-01T19:32:46.683Z,97446.38
2023-02-01T19:35:19.534Z,97446.72
2023-02-01T19:37:48.083Z,97454.16
2023-02-01T19:40:20.014Z,97460.19
2023-02-01T19:42:58.243Z,97448.19
2023-02-01T19:45:28.210Z,97457.41
2023-02-01T19:47:56.053Z,97448.00
2023-02-01T19:50:23.897Z,97451.16
2023-02-01T19:52:51.664Z,97450.66
2023-02-01T19:55:19.433Z,97447.34
2023-02-01T19:57:47.206Z,97452.44
2023-02-01T20:00:17.031Z,97444.59
2023-02-01T20:02:44.877Z,97458.19
2023-02-01T20:05:12.612Z,97455.19
2023-02-01T20:07:40.303Z,97451.16
2023-02-01T20:10:08.804Z,97455.53
2023-02-01T20:12:36.543Z,97444.69
2023-02-01T20:15:04.697Z,97455.25
2023-02-01T20:17:34.933Z,97455.69
2023-02-01T20:20:04.362Z,97455.69
2023-02-01T20:22:32.326Z,97457.22
2023-02-01T20:25:02.443Z,97456.75
2023-02-01T20:27:31.072Z,97455.31
2023-02-01T20:29:59.138Z,97455.69
2023-02-01T20:32:26.854Z,97448.34
2023-02-01T20:34:54.589Z,97455.00
2023-02-01T20:37:22.286Z,97453.72
2023-02-01T20:39:50.000Z,97450.22
2023-02-01T20:42:17.923Z,97445.84
2023-02-01T20:44:45.692Z,97451.13
2023-02-01T20:47:13.366Z,97448.88
2023-02-01T20:49:41.169Z,97447.72
2023-02-01T20:52:08.983Z,97434.59
2023-02-01T20:54:38.497Z,97442.47
2023-02-01T20:57:06.389Z,97434.50
2023-02-01T20:59:34.095Z,97445.13
2023-02-01T21:02:02.627Z,97436.72
2023-02-01T21:04:30.604Z,97442.19
2023-02-01T21:06:58.988Z,97431.09
2023-02-01T21:09:26.902Z,97417.97
2023-02-01T21:11:54.677Z,97411.59
2023-02-01T21:14:22.475Z,97398.00
2023-02-01T21:16:50.181Z,97410.00
2023-02-01T21:19:18.012Z,97405.91
2023-02-01T21:21:45.831Z,97400.22
2023-02-01T21:24:13.518Z,97404.72
2023-02-01T21:26:41.334Z,97402.34
2023-02-01T21:29:13.551Z,97408.88
2023-02-01T21:31:41.751Z,97405.50
2023-02-01T21:34:09.490Z,97404.31
2023-02-01T21:36:37.239Z,97407.81
2023-02-01T21:39:06.917Z,97409.47
2023-02-01T21:41:53.950Z,97407.19
2023-02-01T21:44:22.186Z,97411.69
2023-02-01T21:46:49.941Z,97412.09
2023-02-01T21:49:17.767Z,97418.25
2023-02-01T21:51:45.544Z,97417.34
2023-02-01T21:54:13.475Z,97413.56
2023-02-01T21:56:41.365Z,97419.25
2023-02-01T21:59:10.357Z,97424.19
2023-02-01T22:01:38.787Z,97423.56
2023-02-01T22:04:06.859Z,97417.13
2023-02-01T22:06:42.276Z,97421.59
2023-02-01T22:09:21.157Z,97418.34
2023-02-01T22:11:49.243Z,97416.03
2023-02-01T22:14:17.092Z,97434.91
2023-02-01T22:16:44.874Z,97444.25
2023-02-01T22:19:12.722Z,97450.03
2023-02-01T22:21:42.231Z,97451.00
2023-02-01T22:24:10.856Z,97455.31
2023-02-01T22:26:38.738Z,97455.75
2023-02-01T22:29:07.241Z,97454.78
2023-02-01T22:31:35.118Z,97449.25
2023-02-01T22:34:02.916Z,97456.25
2023-02-01T22:36:31.795Z,97452.50
2023-02-01T22:38:59.517Z,97452.50
2023-02-01T22:41:27.316Z,97460.03
2023-02-01T22:43:55.030Z,97457.81
2023-02-01T22:46:25.355Z,97465.06
2023-02-01T22:48:53.115Z,97468.84
2023-02-01T22:51:23.065Z,97486.00
2023-02-01T22:53:57.136Z,97482.94
2023-02-01T22:56:25.576Z,97495.88
2023-02-01T22:58:55.349Z,97502.03
2023-02-01T23:01:23.283Z,97501.16
2023-02-01T23:03:51.086Z,97509.88
2023-02-01T23:06:18.853Z,97501.09
2023-02-01T23:08:46.592Z,97491.47
2023-02-01T23:11:14.346Z,97501.75
2023-02-01T23:13:42.083Z,97495.16
2023-02-01T23:16:12.026Z,97494.00
2023-02-01T23:18:40.121Z,97487.53
2023-02-01T23:21:12.797Z,97491.28
2023-02-01T23:23:40.660Z,97488.66
2023-02-01T23:26:08.403Z,97483.88
2023-02-01T23:28:36.105Z,97473.16
2023-02-01T23:31:08.506Z,97469.09
2023-02-01T23:33:36.525Z,97461.03
2023-02-01T23:36:05.772Z,97458.56
2023-02-01T23:38:33.663Z,97466.03
2023-02-01T23:41:04.841Z,97466.75
2023-02-01T23:43:51.161Z,97470.00
2023-02-01T23:46:18.966Z,97468.78
2023-02-01T23:48:47.500Z,97471.69
2023-02-01T23:51:15.515Z,97477.31
2023-02-01T23:53:44.831Z,97476.09
2023-02-01T23:56:22.572Z,97476.69
2023-02-01T23:58:51.812Z,97481.34
